Rubin Power — 3FNG6 — position and weather

sailwx.info

Track history (hours):
 
Tides and Currents Weather Stations Pressure Air Temp Water Temp Dewpoint Dewpoint Depression Visibility Wind Speed Wind Dir Waves Ship Positions

Rubin Power

Last reported at 2016-Feb-06 20:28 UTC. Time now 2016-Feb-06 20:38 UTC.
Position S 24°08' W 046°19'.

Length 218.7 m; beam 32.2 m.

Type: Cargo ship. MMSI: 356808000.

Date/timePositionNaut miles runAvg speedWind from/ knotsBaromVisibWave heightAir tempDewpointWater temp
2016-Feb-06 20:28S 24°08' W 046°19'0 0.0
2016-Feb-06 18:31S 24°08' W 046°19'0 0.0
2016-Feb-06 17:31S 24°08' W 046°19'0 0.0
2016-Feb-06 16:25S 24°08' W 046°19'0 0.0
2016-Feb-06 15:25S 24°08' W 046°19'0 0.0
2016-Feb-06 14:25S 24°08' W 046°19'0 0.0
2016-Feb-06 13:31S 24°08' W 046°19'0 0.0
2016-Feb-06 12:25S 24°08' W 046°19'0 0.0
2016-Feb-06 11:31S 24°08' W 046°19'0 0.0
2016-Feb-06 10:31S 24°08' W 046°19'0 0.0
2016-Feb-06 09:31S 24°08' W 046°19'0 0.0
2016-Feb-06 08:31S 24°08' W 046°19'0 0.0
2016-Feb-06 07:25S 24°08' W 046°19'0 0.0
2016-Feb-06 06:31S 24°08' W 046°19'0 0.0
2016-Feb-06 05:31S 24°08' W 046°19'0 0.0
2016-Feb-06 04:31S 24°08' W 046°19'0 0.0
2016-Feb-06 03:31S 24°08' W 046°19'0 0.0
2016-Feb-06 02:28S 24°08' W 046°19'0 0.0
2016-Feb-06 01:31S 24°08' W 046°19'0 0.0
2016-Feb-06 00:13S 24°08' W 046°19'0 0.0
2016-Feb-05 23:31S 24°08' W 046°19'0 0.0
2016-Feb-05 22:31S 24°08' W 046°19'0 0.0
2016-Feb-05 21:31S 24°08' W 046°19'0 0.0
2016-Feb-05 20:31S 24°08' W 046°19'0 0.0
2016-Feb-05 19:19S 24°09' W 046°19'0 0.0
2016-Feb-05 18:25S 24°09' W 046°19'0 0.1
2016-Feb-05 15:19S 24°08' W 046°19'0 0.0
2016-Feb-05 14:07S 24°08' W 046°19'0 0.1
2016-Feb-05 13:25S 24°08' W 046°19'0 0.0
2016-Feb-05 12:31S 24°08' W 046°19'0 0.0
2016-Feb-05 09:13S 24°09' W 046°19'0 0.0
2016-Feb-05 08:19S 24°09' W 046°19'0 0.0
2016-Feb-05 07:19S 24°08' W 046°19'0 0.0
2016-Feb-05 05:25S 24°08' W 046°19'0 0.0
2016-Feb-05 04:31S 24°08' W 046°19'0 0.0
2016-Feb-05 03:31S 24°08' W 046°19'0 0.0
2016-Feb-05 02:31S 24°08' W 046°19'0 0.0
2016-Feb-05 01:28S 24°08' W 046°19'0 0.0
2016-Feb-05 00:13S 24°08' W 046°19'0 0.0
2016-Feb-04 23:25S 24°08' W 046°19'0 0.0
2016-Feb-04 22:31S 24°08' W 046°19'0 0.0
2016-Feb-04 21:28S 24°08' W 046°19'0 0.0
2016-Feb-04 20:31S 24°08' W 046°19'0 0.0
2016-Feb-04 19:31S 24°08' W 046°19'0 0.0
2016-Feb-04 18:07S 24°08' W 046°19'0 0.0
2016-Feb-04 16:19S 24°08' W 046°19'0 0.0
2016-Feb-04 15:25S 24°08' W 046°19'0 0.0
2016-Feb-04 14:25S 24°08' W 046°19'0 0.0
2016-Feb-04 13:19S 24°08' W 046°19'5 0.4
2016-Feb-04 00:33S 24°05' W 046°22'  
2016-Feb-01 19:23S 23°60' W 046°18'8 6.7
2016-Feb-01 18:14S 24°06' W 046°22'5 7.6
2016-Feb-01 17:33S 24°11' W 046°19'5 4.4
2016-Feb-01 16:23S 24°13' W 046°14'0 0.0
2016-Feb-01 15:26S 24°13' W 046°14'0 0.0
2016-Feb-01 09:32S 24°13' W 046°14'0 0.0
2016-Feb-01 08:20S 24°13' W 046°14'0 0.0
2016-Feb-01 07:32S 24°13' W 046°14'0 0.1
2016-Feb-01 06:32S 24°13' W 046°14'0 0.1
2016-Feb-01 03:32S 24°13' W 046°14'0 0.0
2016-Feb-01 02:26S 24°13' W 046°14'0 0.0
2016-Feb-01 01:32S 24°13' W 046°14'0 0.0
2016-Feb-01 00:32S 24°13' W 046°14'0 0.0
2016-Jan-31 23:08S 24°13' W 046°14'0 0.0
2016-Jan-31 22:32S 24°13' W 046°14'0 0.0
2016-Jan-31 21:26S 24°13' W 046°14'0 0.0
2016-Jan-31 20:32S 24°13' W 046°14'0 0.0
2016-Jan-31 19:32S 24°13' W 046°14'0 0.0
2016-Jan-31 18:32S 24°13' W 046°14'0 0.0
2016-Jan-31 17:32S 24°13' W 046°14'0 0.0
2016-Jan-31 16:32S 24°13' W 046°14'0 0.0
2016-Jan-31 15:32S 24°13' W 046°14'0 0.0
2016-Jan-31 14:23S 24°13' W 046°14'0 0.0
2016-Jan-31 12:05S 24°13' W 046°14'0 0.1
2016-Jan-31 11:32S 24°13' W 046°14'0 0.0
2016-Jan-31 10:26S 24°13' W 046°14'0 0.0
2016-Jan-31 09:26S 24°13' W 046°14'0 0.0
2016-Jan-31 08:20S 24°13' W 046°14'0 0.1
2016-Jan-31 06:26S 24°13' W 046°14'0 0.0
2016-Jan-31 05:32S 24°13' W 046°14'0 0.0
2016-Jan-31 04:08S 24°13' W 046°14'0 0.0
2016-Jan-31 03:32S 24°13' W 046°14'0 0.0
2016-Jan-30 18:20S 24°13' W 046°14'0 0.0
2016-Jan-30 17:32S 24°13' W 046°14'0 0.0
2016-Jan-30 16:26S 24°13' W 046°14'0 0.0
2016-Jan-30 15:14S 24°13' W 046°14'0 0.0
2016-Jan-30 14:32S 24°13' W 046°14'0 0.0
2016-Jan-30 12:32S 24°13' W 046°14'0 0.0
2016-Jan-30 07:32S 24°13' W 046°14'0 0.0
2016-Jan-30 05:05S 24°13' W 046°14'0 0.0
2016-Jan-30 04:32S 24°13' W 046°14'0 0.0
2016-Jan-30 01:32S 24°13' W 046°14'0 0.0
2016-Jan-30 00:32S 24°13' W 046°14'0 0.0
2016-Jan-29 23:32S 24°13' W 046°14'0 0.0
2016-Jan-29 22:32S 24°13' W 046°14'0 0.0
2016-Jan-29 21:26S 24°13' W 046°14'0 0.0
2016-Jan-29 16:32S 24°13' W 046°14'0 0.1
2016-Jan-29 15:20S 24°13' W 046°14'0 0.1
2016-Jan-29 14:32S 24°13' W 046°14'0 0.0
2016-Jan-29 09:14S 24°13' W 046°14'0 0.0
2016-Jan-28 15:26S 24°13' W 046°14'0 0.0
2016-Jan-28 14:26S 24°13' W 046°14'0 0.0
2016-Jan-28 08:14S 24°13' W 046°14'0 0.0
2016-Jan-28 07:32S 24°13' W 046°14'0 0.0
2016-Jan-28 06:26S 24°13' W 046°14'0 0.0
2016-Jan-28 05:08S 24°13' W 046°14'0 0.0
2016-Jan-28 04:32S 24°13' W 046°14'0 0.0
2016-Jan-28 03:20S 24°13' W 046°14'0 0.0
2016-Jan-28 00:32S 24°13' W 046°14'0 0.0
2016-Jan-27 23:32S 24°13' W 046°14'0 0.0
2016-Jan-27 22:29S 24°13' W 046°14'0 0.1
2016-Jan-27 21:26S 24°13' W 046°14'0 0.0
2016-Jan-27 20:32S 24°13' W 046°14'  
Track history (hours):
 
Tides and Currents Weather Stations Pressure Air Temp Water Temp Dewpoint Dewpoint Depression Visibility Wind Speed Wind Dir Waves Ship Positions

Rubin Power

Last reported at 2016-Feb-06 20:28 UTC. Time now 2016-Feb-06 20:38 UTC.
Position S 24°08' W 046°19'.

Length 218.7 m; beam 32.2 m.

Type: Cargo ship. MMSI: 356808000.

Date/timePositionNaut miles runAvg speedWind from/ knotsBaromVisibWave heightAir tempDewpointWater temp
2016-Feb-06 20:28S 24°08' W 046°19'0 0.0
2016-Feb-06 18:31S 24°08' W 046°19'0 0.0
2016-Feb-06 17:31S 24°08' W 046°19'0 0.0
2016-Feb-06 16:25S 24°08' W 046°19'0 0.0
2016-Feb-06 15:25S 24°08' W 046°19'0 0.0
2016-Feb-06 14:25S 24°08' W 046°19'0 0.0
2016-Feb-06 13:31S 24°08' W 046°19'0 0.0
2016-Feb-06 12:25S 24°08' W 046°19'0 0.0
2016-Feb-06 11:31S 24°08' W 046°19'0 0.0
2016-Feb-06 10:31S 24°08' W 046°19'0 0.0
2016-Feb-06 09:31S 24°08' W 046°19'0 0.0
2016-Feb-06 08:31S 24°08' W 046°19'0 0.0
2016-Feb-06 07:25S 24°08' W 046°19'0 0.0
2016-Feb-06 06:31S 24°08' W 046°19'0 0.0
2016-Feb-06 05:31S 24°08' W 046°19'0 0.0
2016-Feb-06 04:31S 24°08' W 046°19'0 0.0
2016-Feb-06 03:31S 24°08' W 046°19'0 0.0
2016-Feb-06 02:28S 24°08' W 046°19'0 0.0
2016-Feb-06 01:31S 24°08' W 046°19'0 0.0
2016-Feb-06 00:13S 24°08' W 046°19'0 0.0
2016-Feb-05 23:31S 24°08' W 046°19'0 0.0
2016-Feb-05 22:31S 24°08' W 046°19'0 0.0
2016-Feb-05 21:31S 24°08' W 046°19'0 0.0
2016-Feb-05 20:31S 24°08' W 046°19'0 0.0
2016-Feb-05 19:19S 24°09' W 046°19'0 0.0
2016-Feb-05 18:25S 24°09' W 046°19'0 0.1
2016-Feb-05 15:19S 24°08' W 046°19'0 0.0
2016-Feb-05 14:07S 24°08' W 046°19'0 0.1
2016-Feb-05 13:25S 24°08' W 046°19'0 0.0
2016-Feb-05 12:31S 24°08' W 046°19'0 0.0
2016-Feb-05 09:13S 24°09' W 046°19'0 0.0
2016-Feb-05 08:19S 24°09' W 046°19'0 0.0
2016-Feb-05 07:19S 24°08' W 046°19'0 0.0
2016-Feb-05 05:25S 24°08' W 046°19'0 0.0
2016-Feb-05 04:31S 24°08' W 046°19'0 0.0
2016-Feb-05 03:31S 24°08' W 046°19'0 0.0
2016-Feb-05 02:31S 24°08' W 046°19'0 0.0
2016-Feb-05 01:28S 24°08' W 046°19'0 0.0
2016-Feb-05 00:13S 24°08' W 046°19'0 0.0
2016-Feb-04 23:25S 24°08' W 046°19'0 0.0
2016-Feb-04 22:31S 24°08' W 046°19'0 0.0
2016-Feb-04 21:28S 24°08' W 046°19'0 0.0
2016-Feb-04 20:31S 24°08' W 046°19'0 0.0
2016-Feb-04 19:31S 24°08' W 046°19'0 0.0
2016-Feb-04 18:07S 24°08' W 046°19'0 0.0
2016-Feb-04 16:19S 24°08' W 046°19'0 0.0
2016-Feb-04 15:25S 24°08' W 046°19'0 0.0
2016-Feb-04 14:25S 24°08' W 046°19'0 0.0
2016-Feb-04 13:19S 24°08' W 046°19'5 0.4
2016-Feb-04 00:33S 24°05' W 046°22'  
2016-Feb-01 19:23S 23°60' W 046°18'8 6.7
2016-Feb-01 18:14S 24°06' W 046°22'5 7.6
2016-Feb-01 17:33S 24°11' W 046°19'5 4.4
2016-Feb-01 16:23S 24°13' W 046°14'0 0.0
2016-Feb-01 15:26S 24°13' W 046°14'0 0.0
2016-Feb-01 09:32S 24°13' W 046°14'0 0.0
2016-Feb-01 08:20S 24°13' W 046°14'0 0.0
2016-Feb-01 07:32S 24°13' W 046°14'0 0.1
2016-Feb-01 06:32S 24°13' W 046°14'0 0.1
2016-Feb-01 03:32S 24°13' W 046°14'0 0.0
2016-Feb-01 02:26S 24°13' W 046°14'0 0.0
2016-Feb-01 01:32S 24°13' W 046°14'0 0.0
2016-Feb-01 00:32S 24°13' W 046°14'0 0.0
2016-Jan-31 23:08S 24°13' W 046°14'0 0.0
2016-Jan-31 22:32S 24°13' W 046°14'0 0.0
2016-Jan-31 21:26S 24°13' W 046°14'0 0.0
2016-Jan-31 20:32S 24°13' W 046°14'0 0.0
2016-Jan-31 19:32S 24°13' W 046°14'0 0.0
2016-Jan-31 18:32S 24°13' W 046°14'0 0.0
2016-Jan-31 17:32S 24°13' W 046°14'0 0.0
2016-Jan-31 16:32S 24°13' W 046°14'0 0.0
2016-Jan-31 15:32S 24°13' W 046°14'0 0.0
2016-Jan-31 14:23S 24°13' W 046°14'0 0.0
2016-Jan-31 12:05S 24°13' W 046°14'0 0.1
2016-Jan-31 11:32S 24°13' W 046°14'0 0.0
2016-Jan-31 10:26S 24°13' W 046°14'0 0.0
2016-Jan-31 09:26S 24°13' W 046°14'0 0.0
2016-Jan-31 08:20S 24°13' W 046°14'0 0.1
2016-Jan-31 06:26S 24°13' W 046°14'0 0.0
2016-Jan-31 05:32S 24°13' W 046°14'0 0.0
2016-Jan-31 04:08S 24°13' W 046°14'0 0.0
2016-Jan-31 03:32S 24°13' W 046°14'0 0.0
2016-Jan-30 18:20S 24°13' W 046°14'0 0.0
2016-Jan-30 17:32S 24°13' W 046°14'0 0.0
2016-Jan-30 16:26S 24°13' W 046°14'0 0.0
2016-Jan-30 15:14S 24°13' W 046°14'0 0.0
2016-Jan-30 14:32S 24°13' W 046°14'0 0.0
2016-Jan-30 12:32S 24°13' W 046°14'0 0.0
2016-Jan-30 07:32S 24°13' W 046°14'0 0.0
2016-Jan-30 05:05S 24°13' W 046°14'0 0.0
2016-Jan-30 04:32S 24°13' W 046°14'0 0.0
2016-Jan-30 01:32S 24°13' W 046°14'0 0.0
2016-Jan-30 00:32S 24°13' W 046°14'0 0.0
2016-Jan-29 23:32S 24°13' W 046°14'0 0.0
2016-Jan-29 22:32S 24°13' W 046°14'0 0.0
2016-Jan-29 21:26S 24°13' W 046°14'0 0.0
2016-Jan-29 16:32S 24°13' W 046°14'0 0.1
2016-Jan-29 15:20S 24°13' W 046°14'0 0.1
2016-Jan-29 14:32S 24°13' W 046°14'0 0.0
2016-Jan-29 09:14S 24°13' W 046°14'0 0.0
2016-Jan-28 15:26S 24°13' W 046°14'0 0.0
2016-Jan-28 14:26S 24°13' W 046°14'0 0.0
2016-Jan-28 08:14S 24°13' W 046°14'0 0.0
2016-Jan-28 07:32S 24°13' W 046°14'0 0.0
2016-Jan-28 06:26S 24°13' W 046°14'0 0.0
2016-Jan-28 05:08S 24°13' W 046°14'0 0.0
2016-Jan-28 04:32S 24°13' W 046°14'0 0.0
2016-Jan-28 03:20S 24°13' W 046°14'0 0.0
2016-Jan-28 00:32S 24°13' W 046°14'0 0.0
2016-Jan-27 23:32S 24°13' W 046°14'0 0.0
2016-Jan-27 22:29S 24°13' W 046°14'0 0.1
2016-Jan-27 21:26S 24°13' W 046°14'0 0.0
2016-Jan-27 20:32S 24°13' W 046°14'  

Dump ship's entire track history